createdAt,value
2023-03-16T00:00:44.626Z,3.10
2023-03-16T00:02:46.097Z,3.17
2023-03-16T00:04:47.619Z,3.05
2023-03-16T00:06:49.007Z,2.50
2023-03-16T00:08:50.457Z,2.95
2023-03-16T00:10:54.046Z,2.88
2023-03-16T00:12:56.657Z,3.15
2023-03-16T00:14:58.031Z,3.13
2023-03-16T00:16:59.381Z,3.10
2023-03-16T00:19:03.085Z,2.60
2023-03-16T00:21:05.869Z,3.10
2023-03-16T00:23:07.450Z,2.95
2023-03-16T00:25:14.350Z,3.70
2023-03-16T00:27:16.014Z,2.83
2023-03-16T00:29:17.468Z,3.05
2023-03-16T00:31:19.109Z,2.97
2023-03-16T00:33:20.810Z,2.60
2023-03-16T00:35:22.186Z,2.70
2023-03-16T00:37:25.605Z,2.88
2023-03-16T00:39:27.051Z,3.58
2023-03-16T00:41:28.449Z,2.83
2023-03-16T00:43:31.418Z,2.60
2023-03-16T00:45:33.076Z,2.65
2023-03-16T00:47:35.018Z,2.75
2023-03-16T00:49:36.657Z,2.63
2023-03-16T00:51:38.070Z,2.72
2023-03-16T00:53:41.543Z,3.35
2023-03-16T00:55:43.042Z,3.10
2023-03-16T00:57:44.857Z,2.90
2023-03-16T00:59:46.667Z,3.40
2023-03-16T01:01:48.332Z,2.53
2023-03-16T01:03:49.714Z,2.72
2023-03-16T01:05:51.145Z,2.63
2023-03-16T01:07:52.544Z,2.85
2023-03-16T01:09:53.941Z,2.42
2023-03-16T01:11:55.381Z,2.80
2023-03-16T01:13:56.934Z,3.15
2023-03-16T01:15:59.736Z,2.83
2023-03-16T01:18:01.862Z,2.72
2023-03-16T01:20:08.059Z,2.97
2023-03-16T01:22:10.485Z,2.33
2023-03-16T01:24:11.911Z,2.40
2023-03-16T01:26:15.133Z,2.67
2023-03-16T01:28:16.527Z,2.47
2023-03-16T01:30:17.917Z,2.25
2023-03-16T01:32:19.396Z,2.40
2023-03-16T01:34:20.844Z,2.40
2023-03-16T01:36:22.235Z,2.58
2023-03-16T01:38:24.385Z,2.38
2023-03-16T01:40:25.970Z,2.80
2023-03-16T01:42:27.787Z,3.47
2023-03-16T01:44:32.556Z,2.72
2023-03-16T01:46:34.415Z,2.90
2023-03-16T01:48:39.101Z,3.03
2023-03-16T01:50:42.192Z,2.78
2023-03-16T01:52:43.673Z,2.55
2023-03-16T01:55:13.000Z,2.72
2023-03-16T01:57:30.373Z,2.35
2023-03-16T01:59:57.800Z,3.10
2023-03-16T02:02:00.318Z,3.05
2023-03-16T02:04:33.840Z,2.67
2023-03-16T02:06:36.967Z,2.33
2023-03-16T02:08:40.493Z,2.30
2023-03-16T02:10:43.131Z,2.80
2023-03-16T02:12:44.965Z,2.60
2023-03-16T02:14:48.412Z,3.10
2023-03-16T02:16:50.617Z,2.10
2023-03-16T02:18:52.065Z,2.40
2023-03-16T02:21:02.659Z,2.42
2023-03-16T02:23:07.242Z,2.53
2023-03-16T02:25:10.435Z,3.00
2023-03-16T02:27:39.780Z,2.50
2023-03-16T02:30:02.349Z,2.88
2023-03-16T02:32:05.499Z,2.30
2023-03-16T02:34:09.434Z,2.47
2023-03-16T02:36:12.771Z,2.40
2023-03-16T02:38:14.252Z,2.47
2023-03-16T02:40:28.677Z,3.00
2023-03-16T02:42:30.243Z,2.33
2023-03-16T02:44:36.375Z,2.42
2023-03-16T02:46:38.898Z,2.22
2023-03-16T02:48:48.006Z,2.50
2023-03-16T02:50:53.265Z,2.58
2023-03-16T02:52:54.664Z,2.38
2023-03-16T02:54:56.041Z,2.35
2023-03-16T02:56:57.671Z,2.22
2023-03-16T02:58:59.081Z,2.47
2023-03-16T03:01:01.346Z,2.45
2023-03-16T03:03:03.420Z,2.35
2023-03-16T03:05:05.369Z,2.08
2023-03-16T03:07:06.809Z,2.17
2023-03-16T03:09:08.799Z,2.65
2023-03-16T03:11:10.254Z,2.15
2023-03-16T03:13:13.441Z,1.92
2023-03-16T03:15:16.597Z,2.28
2023-03-16T03:17:17.993Z,2.42
2023-03-16T03:19:19.390Z,2.40
2023-03-16T03:21:21.702Z,2.30
2023-03-16T03:23:23.591Z,2.58
2023-03-16T03:25:25.089Z,1.92
2023-03-16T03:27:26.493Z,2.67
2023-03-16T03:29:34.490Z,2.13
2023-03-16T03:31:35.968Z,1.55
2023-03-16T03:33:37.330Z,2.03
2023-03-16T03:35:38.813Z,2.10
2023-03-16T03:37:41.051Z,1.58
2023-03-16T03:39:42.656Z,1.77
2023-03-16T03:41:44.053Z,2.00
2023-03-16T03:43:45.443Z,1.77
2023-03-16T03:45:47.267Z,1.70
2023-03-16T03:47:48.664Z,2.53
2023-03-16T03:49:50.038Z,1.80
2023-03-16T03:51:51.485Z,1.88
2023-03-16T03:53:52.878Z,2.10
2023-03-16T03:55:54.414Z,1.70
2023-03-16T03:57:55.788Z,1.55
2023-03-16T03:59:57.217Z,2.17
2023-03-16T04:01:58.795Z,1.73
2023-03-16T04:04:00.592Z,1.70
2023-03-16T04:06:02.119Z,1.90
2023-03-16T04:08:04.227Z,2.20
2023-03-16T04:10:07.558Z,2.35
2023-03-16T04:12:13.718Z,2.15
2023-03-16T04:14:15.105Z,1.90
2023-03-16T04:16:17.178Z,2.28
2023-03-16T04:18:18.588Z,2.10
2023-03-16T04:20:20.748Z,1.80
2023-03-16T04:22:23.247Z,1.73
2023-03-16T04:24:24.668Z,1.85
2023-03-16T04:26:26.067Z,2.00
2023-03-16T04:28:27.630Z,1.70
2023-03-16T04:30:30.959Z,1.80
2023-03-16T04:32:33.605Z,1.48
2023-03-16T04:34:35.092Z,1.80
2023-03-16T04:36:36.484Z,1.52
2023-03-16T04:38:37.892Z,1.55
2023-03-16T04:40:39.308Z,1.13
2023-03-16T04:42:40.703Z,1.63
2023-03-16T04:44:44.344Z,1.80
2023-03-16T04:46:45.848Z,1.15
2023-03-16T04:48:47.217Z,1.27
2023-03-16T04:50:48.745Z,1.33
2023-03-16T04:52:50.112Z,1.40
2023-03-16T04:54:51.822Z,1.42
2023-03-16T04:56:53.220Z,1.42
2023-03-16T04:58:56.877Z,1.58
2023-03-16T05:00:58.436Z,1.60
2023-03-16T05:02:59.846Z,1.42
2023-03-16T05:05:01.582Z,1.58
2023-03-16T05:07:03.188Z,1.80
2023-03-16T05:09:06.024Z,1.58
2023-03-16T05:11:07.830Z,1.52
2023-03-16T05:13:09.291Z,1.42
2023-03-16T05:15:11.524Z,1.35
2023-03-16T05:17:14.821Z,1.50
2023-03-16T05:19:16.339Z,1.83
2023-03-16T05:21:17.717Z,1.58
2023-03-16T05:23:20.326Z,2.08
2023-03-16T05:25:21.902Z,1.90
2023-03-16T05:27:23.257Z,2.30
2023-03-16T05:29:26.426Z,2.03
2023-03-16T05:31:28.812Z,1.80
2023-03-16T05:33:30.365Z,1.80
2023-03-16T05:35:32.398Z,2.00
2023-03-16T05:37:38.009Z,2.63
2023-03-16T05:39:39.409Z,1.73
2023-03-16T05:41:41.224Z,2.03
2023-03-16T05:43:43.569Z,2.08
2023-03-16T05:45:45.001Z,2.22
2023-03-16T05:47:46.407Z,2.83
2023-03-16T05:49:47.825Z,2.42
2023-03-16T05:51:50.668Z,2.30
2023-03-16T05:53:56.632Z,2.55
2023-03-16T05:55:58.158Z,2.20
2023-03-16T05:57:59.617Z,2.70
2023-03-16T06:00:11.252Z,2.15
2023-03-16T06:02:12.684Z,3.13
2023-03-16T06:04:14.340Z,2.53
2023-03-16T06:06:16.999Z,2.65
2023-03-16T06:08:18.405Z,2.60
2023-03-16T06:10:20.154Z,2.55
2023-03-16T06:12:21.549Z,2.60
2023-03-16T06:14:23.878Z,2.90
2023-03-16T06:16:25.924Z,3.38
2023-03-16T06:18:27.604Z,3.83
2023-03-16T06:20:29.431Z,3.03
2023-03-16T06:22:31.225Z,2.30
2023-03-16T06:24:32.599Z,2.50
2023-03-16T06:26:33.983Z,2.63
2023-03-16T06:28:35.391Z,2.65
2023-03-16T06:30:36.803Z,3.00
2023-03-16T06:32:38.850Z,2.25
2023-03-16T06:34:41.612Z,2.92
2023-03-16T06:36:43.084Z,2.45
2023-03-16T06:38:44.896Z,2.40
2023-03-16T06:40:46.428Z,2.72
2023-03-16T06:42:48.264Z,2.40
2023-03-16T06:44:49.798Z,2.67
2023-03-16T06:46:51.238Z,2.28
2023-03-16T06:48:52.622Z,2.53
2023-03-16T06:50:54.173Z,2.72
2023-03-16T06:52:55.794Z,2.10
2023-03-16T06:54:58.492Z,2.38
2023-03-16T06:56:59.994Z,2.60
2023-03-16T06:59:01.698Z,2.40
2023-03-16T07:01:04.145Z,2.60
2023-03-16T07:03:05.719Z,2.53
2023-03-16T07:05:07.975Z,2.35
2023-03-16T07:07:09.867Z,2.08
2023-03-16T07:09:12.461Z,2.40
2023-03-16T07:11:14.830Z,2.13
2023-03-16T07:13:16.243Z,2.53
2023-03-16T07:15:17.782Z,2.00
2023-03-16T07:17:19.229Z,1.92
2023-03-16T07:19:20.667Z,2.05
2023-03-16T07:21:22.144Z,2.22
2023-03-16T07:23:24.809Z,2.53
2023-03-16T07:25:26.202Z,2.20
2023-03-16T07:27:28.762Z,1.80
2023-03-16T07:29:30.199Z,2.03
2023-03-16T07:31:32.536Z,2.05
2023-03-16T07:33:34.747Z,1.85
2023-03-16T07:35:36.204Z,2.25
2023-03-16T07:37:37.907Z,1.77
2023-03-16T07:39:40.023Z,2.22
2023-03-16T07:41:41.674Z,2.10
2023-03-16T07:43:44.355Z,1.90
2023-03-16T07:45:52.302Z,2.22
2023-03-16T07:47:53.689Z,2.40
2023-03-16T07:49:55.095Z,2.35
2023-03-16T07:51:56.521Z,2.00
2023-03-16T07:53:57.903Z,2.35
2023-03-16T07:55:59.285Z,2.17
2023-03-16T07:58:01.555Z,2.35
2023-03-16T08:00:05.237Z,2.13
2023-03-16T08:02:07.091Z,1.85
2023-03-16T08:04:12.326Z,1.83
2023-03-16T08:06:13.751Z,1.98
2023-03-16T08:08:15.953Z,1.55
2023-03-16T08:10:18.243Z,1.50
2023-03-16T08:12:19.657Z,1.30
2023-03-16T08:14:21.243Z,1.80
2023-03-16T08:16:24.389Z,1.80
2023-03-16T08:18:26.705Z,1.85
2023-03-16T08:20:29.720Z,1.80
2023-03-16T08:22:31.276Z,1.30
2023-03-16T08:24:33.251Z,1.65
2023-03-16T08:26:34.818Z,1.70
2023-03-16T08:28:36.369Z,1.55
2023-03-16T08:30:38.009Z,1.30
2023-03-16T08:32:40.976Z,1.67
2023-03-16T08:34:42.526Z,1.48
2023-03-16T08:36:44.228Z,1.60
2023-03-16T08:39:03.897Z,1.50
2023-03-16T08:41:08.406Z,1.30
2023-03-16T08:43:09.790Z,1.40
2023-03-16T08:45:14.219Z,1.50
2023-03-16T08:47:16.097Z,1.55
2023-03-16T08:49:17.483Z,1.65
2023-03-16T08:51:19.609Z,1.73
2023-03-16T08:53:21.494Z,1.48
2023-03-16T08:55:24.423Z,2.05
2023-03-16T08:57:26.220Z,1.50
2023-03-16T08:59:30.475Z,1.75
2023-03-16T09:01:32.011Z,1.55
2023-03-16T09:03:34.793Z,1.90
2023-03-16T09:05:36.176Z,1.30
2023-03-16T09:07:39.229Z,1.80
2023-03-16T09:09:40.735Z,1.73
2023-03-16T09:11:42.121Z,1.50
2023-03-16T09:13:44.785Z,2.00
2023-03-16T09:15:46.179Z,1.73
2023-03-16T09:17:47.733Z,1.88
2023-03-16T09:19:51.774Z,2.00
2023-03-16T09:21:53.727Z,1.90
2023-03-16T09:23:56.237Z,2.15
2023-03-16T09:25:59.599Z,2.28
2023-03-16T09:28:01.030Z,2.00
2023-03-16T09:30:05.280Z,1.98
2023-03-16T09:32:07.710Z,1.80
2023-03-16T09:34:09.379Z,1.83
2023-03-16T09:36:14.195Z,1.88
2023-03-16T09:38:15.830Z,1.90
2023-03-16T09:40:23.270Z,1.80
2023-03-16T09:42:37.470Z,1.90
2023-03-16T09:45:26.758Z,2.40
2023-03-16T09:47:30.760Z,2.53
2023-03-16T09:49:43.300Z,1.80
2023-03-16T09:52:15.725Z,1.90
2023-03-16T09:54:27.601Z,2.00
2023-03-16T09:56:35.286Z,1.70
2023-03-16T09:58:36.969Z,1.73
2023-03-16T10:00:45.352Z,2.33
2023-03-16T10:03:30.029Z,2.10
2023-03-16T10:05:32.838Z,1.80
2023-03-16T10:08:00.571Z,1.70
2023-03-16T10:10:14.833Z,2.13
2023-03-16T10:12:17.122Z,2.38
2023-03-16T10:14:41.391Z,1.70
2023-03-16T10:17:08.220Z,1.45
2023-03-16T10:19:25.608Z,1.50
2023-03-16T10:21:27.894Z,1.77
2023-03-16T10:23:34.344Z,1.95
2023-03-16T10:25:50.048Z,2.08
2023-03-16T10:27:52.931Z,1.40
2023-03-16T10:29:55.055Z,1.33
2023-03-16T10:32:02.355Z,1.33
2023-03-16T10:34:06.132Z,1.55
2023-03-16T10:36:15.771Z,1.75
2023-03-16T10:38:55.197Z,1.92
2023-03-16T10:40:59.790Z,1.80
2023-03-16T10:43:12.829Z,1.83
2023-03-16T10:45:32.139Z,2.45
2023-03-16T10:47:34.254Z,2.67
2023-03-16T10:49:42.321Z,2.45
2023-03-16T10:51:43.902Z,2.65
2023-03-16T10:53:45.401Z,1.90
2023-03-16T10:55:47.937Z,1.67
2023-03-16T10:57:53.594Z,1.92
2023-03-16T10:59:59.582Z,1.60
2023-03-16T11:02:16.656Z,1.58
2023-03-16T11:04:19.688Z,1.50
2023-03-16T11:06:25.801Z,1.40
2023-03-16T11:08:32.189Z,1.50
2023-03-16T11:10:46.130Z,1.85
2023-03-16T11:12:56.935Z,1.60
2023-03-16T11:15:25.320Z,1.48
2023-03-16T11:17:49.893Z,1.75
2023-03-16T11:19:57.716Z,1.90
2023-03-16T11:22:13.114Z,1.65
2023-03-16T11:25:11.769Z,1.90
2023-03-16T11:27:23.734Z,1.92
2023-03-16T11:29:35.517Z,1.65
2023-03-16T11:31:57.298Z,1.77
2023-03-16T11:33:58.770Z,1.92
2023-03-16T11:36:08.864Z,1.75
2023-03-16T11:38:18.809Z,2.10
2023-03-16T11:40:53.855Z,1.80
2023-03-16T11:43:01.149Z,2.10
2023-03-16T11:45:05.465Z,1.70
2023-03-16T11:47:27.817Z,1.60
2023-03-16T11:49:50.623Z,1.52
2023-03-16T11:52:17.272Z,1.23
2023-03-16T11:54:24.971Z,1.50
2023-03-16T11:56:34.791Z,1.40
2023-03-16T11:58:56.205Z,1.70
2023-03-16T12:01:22.769Z,1.60
2023-03-16T12:03:59.018Z,1.85
2023-03-16T12:06:39.008Z,1.40
2023-03-16T12:08:55.754Z,1.50
2023-03-16T12:11:02.693Z,1.58
2023-03-16T12:15:24.339Z,1.55
2023-03-16T12:17:31.115Z,1.10
2023-03-16T12:19:44.724Z,1.40
2023-03-16T12:21:49.263Z,1.70
2023-03-16T12:23:53.484Z,1.13
2023-03-16T12:25:59.130Z,1.67
2023-03-16T12:28:05.615Z,1.50
2023-03-16T12:30:35.800Z,1.30
2023-03-16T12:32:49.399Z,1.48
2023-03-16T12:35:02.867Z,1.10
2023-03-16T12:37:19.685Z,1.20
2023-03-16T12:39:32.617Z,1.02
2023-03-16T12:41:59.154Z,1.27
2023-03-16T12:44:04.148Z,1.50
2023-03-16T12:46:18.485Z,1.15
2023-03-16T12:48:29.824Z,1.20
2023-03-16T12:50:31.764Z,1.50
2023-03-16T12:52:42.092Z,1.10
2023-03-16T12:54:54.821Z,1.33
2023-03-16T12:57:06.958Z,1.45
2023-03-16T12:59:16.882Z,1.30
2023-03-16T13:01:24.944Z,1.27
2023-03-16T13:03:28.412Z,1.52
2023-03-16T13:05:36.276Z,1.33
2023-03-16T13:07:46.434Z,1.40
2023-03-16T13:09:52.779Z,1.00
2023-03-16T13:11:54.309Z,1.13
2023-03-16T13:14:01.865Z,1.08
2023-03-16T13:16:10.954Z,1.08
2023-03-16T13:18:15.095Z,1.42
2023-03-16T13:20:35.022Z,1.50
2023-03-16T13:22:50.826Z,1.20
2023-03-16T13:25:14.270Z,1.55
2023-03-16T13:27:44.514Z,1.30
2023-03-16T13:29:56.621Z,1.50
2023-03-16T13:32:01.724Z,1.67
2023-03-16T13:34:06.697Z,1.27
2023-03-16T13:36:10.357Z,1.40
2023-03-16T13:38:16.476Z,1.77
2023-03-16T13:40:24.565Z,1.70
2023-03-16T13:42:30.003Z,1.35
2023-03-16T13:44:32.080Z,1.25
2023-03-16T13:46:33.689Z,1.30
2023-03-16T13:48:37.188Z,1.40
2023-03-16T13:50:41.254Z,1.98
2023-03-16T13:52:44.181Z,1.08
2023-03-16T13:54:45.607Z,1.35
2023-03-16T13:56:47.355Z,1.15
2023-03-16T13:58:51.724Z,1.35
2023-03-16T14:00:58.691Z,1.40
2023-03-16T14:03:09.191Z,1.75
2023-03-16T14:05:33.334Z,1.40
2023-03-16T14:07:38.460Z,1.63
2023-03-16T14:09:40.007Z,1.13
2023-03-16T14:11:42.806Z,1.80
2023-03-16T14:13:52.804Z,1.70
2023-03-16T14:15:56.440Z,1.67
2023-03-16T14:18:21.196Z,1.60
2023-03-16T14:20:25.898Z,1.38
2023-03-16T14:22:39.581Z,1.60
2023-03-16T14:24:41.596Z,1.27
2023-03-16T14:26:45.961Z,1.30
2023-03-16T14:29:01.898Z,1.20
2023-03-16T14:31:10.010Z,1.50
2023-03-16T14:33:28.613Z,1.23
2023-03-16T14:35:32.445Z,1.58
2023-03-16T14:37:35.722Z,1.25
2023-03-16T14:39:38.263Z,1.20
2023-03-16T14:41:40.044Z,1.40
2023-03-16T14:44:17.371Z,1.45
2023-03-16T14:46:30.404Z,1.20
2023-03-16T14:50:34.780Z,1.17
2023-03-16T14:52:36.514Z,1.55
2023-03-16T14:54:37.902Z,1.40
2023-03-16T14:56:39.274Z,1.40
2023-03-16T14:58:41.219Z,1.45
2023-03-16T15:00:52.644Z,1.60
2023-03-16T15:03:06.448Z,1.30
2023-03-16T15:05:09.526Z,1.38
2023-03-16T15:07:29.585Z,1.30
2023-03-16T15:09:36.463Z,1.52
2023-03-16T15:11:38.350Z,1.40
2023-03-16T15:13:39.755Z,1.40
2023-03-16T15:15:42.499Z,1.40
2023-03-16T15:17:44.439Z,1.30
2023-03-16T15:19:45.904Z,1.40
2023-03-16T15:21:47.291Z,1.23
2023-03-16T15:23:49.017Z,1.25
2023-03-16T15:25:52.708Z,1.15
2023-03-16T15:27:54.656Z,1.50
2023-03-16T15:29:56.609Z,1.23
2023-03-16T15:31:58.023Z,1.48
2023-03-16T15:33:59.404Z,1.20
2023-03-16T15:36:06.983Z,1.30
2023-03-16T15:38:33.371Z,1.60
2023-03-16T15:40:35.788Z,1.63
2023-03-16T15:42:37.177Z,1.42
2023-03-16T15:44:38.793Z,1.30
2023-03-16T15:46:40.223Z,1.13
2023-03-16T15:48:41.747Z,1.13
2023-03-16T15:50:51.026Z,1.90
2023-03-16T15:52:59.915Z,1.70
2023-03-16T15:55:07.604Z,1.63
2023-03-16T15:57:10.659Z,1.35
2023-03-16T15:59:17.027Z,1.42
2023-03-16T16:01:26.243Z,2.03
2023-03-16T16:03:27.734Z,1.52
2023-03-16T16:05:30.855Z,1.20
2023-03-16T16:07:32.258Z,1.95
2023-03-16T16:09:37.621Z,1.60
2023-03-16T16:11:41.156Z,1.38
2023-03-16T16:13:45.178Z,1.20
2023-03-16T16:15:47.163Z,1.50
2023-03-16T16:18:13.271Z,1.13
2023-03-16T16:20:27.365Z,1.23
2023-03-16T16:22:28.864Z,1.50
2023-03-16T16:24:30.274Z,1.60
2023-03-16T16:26:49.835Z,0.98
2023-03-16T16:28:53.003Z,1.42
2023-03-16T16:30:55.842Z,1.58
2023-03-16T16:32:58.908Z,1.42
2023-03-16T16:35:04.582Z,1.80
2023-03-16T16:37:06.500Z,1.25
2023-03-16T16:39:07.998Z,1.05
2023-03-16T16:41:10.416Z,1.30
2023-03-16T16:43:24.419Z,1.20
2023-03-16T16:45:26.099Z,1.48
2023-03-16T16:47:27.489Z,1.02
2023-03-16T16:49:30.938Z,1.33
2023-03-16T16:51:33.159Z,1.35
2023-03-16T16:53:35.380Z,1.27
2023-03-16T16:55:37.269Z,1.38
2023-03-16T16:57:39.133Z,1.80
2023-03-16T16:59:41.851Z,1.40
2023-03-16T17:01:43.310Z,0.93
2023-03-16T17:03:44.800Z,1.27
2023-03-16T17:05:46.224Z,1.00
2023-03-16T17:07:48.169Z,1.38
2023-03-16T17:09:50.761Z,1.20
2023-03-16T17:11:54.085Z,0.98
2023-03-16T17:13:58.245Z,1.38
2023-03-16T17:16:00.130Z,1.10
2023-03-16T17:18:05.015Z,1.27
2023-03-16T17:20:15.299Z,1.73
2023-03-16T17:22:25.111Z,1.30
2023-03-16T17:24:26.791Z,1.50
2023-03-16T17:26:31.591Z,1.50
2023-03-16T17:28:38.682Z,1.60
2023-03-16T17:30:40.209Z,1.20
2023-03-16T17:32:41.675Z,1.40
2023-03-16T17:34:43.494Z,1.27
2023-03-16T17:36:46.753Z,1.33
2023-03-16T17:38:48.314Z,1.48
2023-03-16T17:40:51.686Z,1.77
2023-03-16T17:42:55.895Z,1.20
2023-03-16T17:44:58.041Z,1.67
2023-03-16T17:46:59.509Z,1.13
2023-03-16T17:49:01.933Z,1.27
2023-03-16T17:51:03.515Z,1.33
2023-03-16T17:53:04.870Z,1.50
2023-03-16T17:55:06.891Z,1.50
2023-03-16T17:57:17.807Z,1.17
2023-03-16T17:59:21.130Z,1.30
2023-03-16T18:01:33.418Z,1.30
2023-03-16T18:03:36.047Z,1.30
2023-03-16T18:05:38.099Z,1.20
2023-03-16T18:07:39.789Z,1.50
2023-03-16T18:09:44.893Z,1.35
2023-03-16T18:11:49.926Z,1.30
2023-03-16T18:13:51.869Z,1.50
2023-03-16T18:15:55.807Z,1.40
2023-03-16T18:17:58.382Z,1.88
2023-03-16T18:20:00.323Z,1.70
2023-03-16T18:22:01.706Z,1.60
2023-03-16T18:24:03.191Z,1.63
2023-03-16T18:26:06.259Z,1.90
2023-03-16T18:28:09.756Z,1.90
2023-03-16T18:30:11.579Z,1.60
2023-03-16T18:32:21.571Z,1.67
2023-03-16T18:34:27.722Z,1.80
2023-03-16T18:36:32.584Z,2.10
2023-03-16T18:38:36.939Z,1.73
2023-03-16T18:40:38.611Z,2.00
2023-03-16T18:42:40.003Z,2.10
2023-03-16T18:44:41.393Z,1.85
2023-03-16T18:46:44.569Z,2.05
2023-03-16T18:48:45.966Z,1.80
2023-03-16T18:50:47.975Z,2.10
2023-03-16T18:52:50.332Z,1.90
2023-03-16T18:54:53.038Z,2.22
2023-03-16T18:56:54.762Z,2.25
2023-03-16T18:58:56.642Z,2.67
2023-03-16T19:01:01.689Z,2.10
2023-03-16T19:03:03.667Z,2.65
2023-03-16T19:05:11.095Z,2.20
2023-03-16T19:07:24.505Z,1.95
2023-03-16T19:09:28.891Z,2.30
2023-03-16T19:11:30.353Z,2.75
2023-03-16T19:13:31.737Z,2.35
2023-03-16T19:15:35.986Z,2.92
2023-03-16T19:17:37.446Z,3.10
2023-03-16T19:19:38.918Z,2.35
2023-03-16T19:21:41.257Z,2.53
2023-03-16T19:23:43.966Z,2.50
2023-03-16T19:25:45.981Z,2.13
2023-03-16T19:27:48.136Z,2.38
2023-03-16T19:29:52.233Z,2.95
2023-03-16T19:31:56.392Z,2.45
2023-03-16T19:33:58.460Z,2.97
2023-03-16T19:36:00.159Z,2.42
2023-03-16T19:38:01.787Z,2.90
2023-03-16T19:40:05.158Z,2.05
2023-03-16T19:42:15.055Z,2.53
2023-03-16T19:44:19.926Z,2.53
2023-03-16T19:46:28.941Z,2.10
2023-03-16T19:48:34.214Z,2.55
2023-03-16T19:50:35.936Z,2.45
2023-03-16T19:52:37.315Z,1.85
2023-03-16T19:54:40.340Z,2.40
2023-03-16T19:56:42.389Z,2.40
2023-03-16T19:58:47.362Z,2.72
2023-03-16T20:00:49.823Z,2.22
2023-03-16T20:02:55.155Z,2.78
2023-03-16T20:04:57.237Z,2.25
2023-03-16T20:06:58.808Z,2.00
2023-03-16T20:09:00.180Z,2.47
2023-03-16T20:11:08.579Z,2.33
2023-03-16T20:13:10.855Z,2.30
2023-03-16T20:15:22.160Z,2.47
2023-03-16T20:17:26.138Z,2.70
2023-03-16T20:19:28.490Z,2.03
2023-03-16T20:21:29.892Z,2.05
2023-03-16T20:23:31.728Z,1.95
2023-03-16T20:25:34.603Z,2.15
2023-03-16T20:27:36.524Z,2.28
2023-03-16T20:29:38.242Z,2.67
2023-03-16T20:31:39.772Z,2.20
2023-03-16T20:33:41.412Z,2.35
2023-03-16T20:35:42.802Z,2.10
2023-03-16T20:37:44.817Z,2.15
2023-03-16T20:39:46.268Z,2.60
2023-03-16T20:41:47.984Z,2.17
2023-03-16T20:43:49.397Z,2.20
2023-03-16T20:45:52.721Z,2.20
2023-03-16T20:47:54.766Z,2.05
2023-03-16T20:49:59.136Z,2.05
2023-03-16T20:52:00.868Z,2.30
2023-03-16T20:54:02.423Z,2.22
2023-03-16T20:56:04.237Z,2.10
2023-03-16T20:58:18.098Z,2.10
2023-03-16T21:00:26.493Z,2.10
2023-03-16T21:02:35.649Z,2.20
2023-03-16T21:04:37.142Z,2.13
2023-03-16T21:06:38.637Z,2.10
2023-03-16T21:08:40.015Z,2.08
2023-03-16T21:10:46.166Z,2.00
2023-03-16T21:12:51.949Z,1.90
2023-03-16T21:14:53.881Z,1.88
2023-03-16T21:16:55.592Z,1.95
2023-03-16T21:18:57.017Z,2.03
2023-03-16T21:20:58.962Z,1.80
2023-03-16T21:23:00.901Z,2.22
2023-03-16T21:25:02.456Z,1.80
2023-03-16T21:27:03.984Z,1.83
2023-03-16T21:29:10.852Z,1.80
2023-03-16T21:31:19.555Z,1.90
2023-03-16T21:33:40.150Z,1.98
2023-03-16T21:35:41.807Z,2.05
2023-03-16T21:37:43.752Z,2.22
2023-03-16T21:39:46.538Z,1.67
2023-03-16T21:41:50.485Z,1.80
2023-03-16T21:43:52.286Z,1.90
2023-03-16T21:45:55.063Z,1.92
2023-03-16T21:47:56.799Z,1.70
2023-03-16T21:49:59.253Z,1.70
2023-03-16T21:52:02.246Z,1.40
2023-03-16T21:54:04.044Z,2.00
2023-03-16T21:56:06.541Z,1.70
2023-03-16T21:58:09.380Z,1.60
2023-03-16T22:00:35.368Z,1.88
2023-03-16T22:02:37.663Z,1.75
2023-03-16T22:04:39.182Z,1.60
2023-03-16T22:06:42.398Z,1.83
2023-03-16T22:08:43.992Z,1.42
2023-03-16T22:10:45.801Z,1.50
2023-03-16T22:12:47.201Z,1.60
2023-03-16T22:14:48.712Z,1.42
2023-03-16T22:16:50.377Z,1.50
2023-03-16T22:18:56.283Z,1.50
2023-03-16T22:20:59.115Z,1.50
2023-03-16T22:23:01.302Z,1.70
2023-03-16T22:25:02.775Z,1.40
2023-03-16T22:27:04.386Z,1.30
2023-03-16T22:29:25.214Z,1.40
2023-03-16T22:31:33.533Z,1.80
2023-03-16T22:33:37.553Z,1.50
2023-03-16T22:35:39.501Z,1.27
2023-03-16T22:37:41.283Z,1.50
2023-03-16T22:39:42.898Z,1.50
2023-03-16T22:41:44.296Z,1.75
2023-03-16T22:43:45.836Z,1.48
2023-03-16T22:45:48.645Z,1.40
2023-03-16T22:47:51.153Z,1.50
2023-03-16T22:49:53.617Z,1.77
2023-03-16T22:51:57.447Z,1.42
2023-03-16T22:54:02.505Z,1.33
2023-03-16T22:56:05.389Z,1.35
2023-03-16T22:58:33.555Z,1.30
2023-03-16T23:00:35.343Z,1.60
2023-03-16T23:02:37.390Z,1.50
2023-03-16T23:04:38.951Z,1.73
2023-03-16T23:06:40.957Z,1.40
2023-03-16T23:08:42.438Z,1.20
2023-03-16T23:10:44.998Z,1.42
2023-03-16T23:14:47.976Z,1.75
2023-03-16T23:16:51.919Z,1.45
2023-03-16T23:18:53.900Z,1.50
2023-03-16T23:20:55.831Z,1.40
2023-03-16T23:22:57.405Z,1.27
2023-03-16T23:24:58.915Z,1.52
2023-03-16T23:27:01.171Z,1.40
2023-03-16T23:29:02.610Z,1.38
2023-03-16T23:31:04.169Z,1.25
2023-03-16T23:33:05.689Z,1.15
2023-03-16T23:35:16.697Z,1.40
2023-03-16T23:37:18.052Z,1.00
2023-03-16T23:39:19.633Z,1.73
2023-03-16T23:41:23.442Z,1.25
2023-03-16T23:43:24.904Z,1.48
2023-03-16T23:45:44.976Z,1.48
2023-03-16T23:47:48.710Z,1.42
2023-03-16T23:49:50.166Z,1.20
2023-03-16T23:51:52.783Z,1.42
2023-03-16T23:53:54.986Z,1.73
2023-03-16T23:55:56.795Z,1.30
2023-03-16T23:57:58.237Z,1.60
2023-03-16T23:59:59.619Z,1.48
